Time;durP1;ratioP1;P1;durP2;ratioP2;P2;SDS_P1;SDS_P2;PMS_P1;PMS_P2;Temp;Humidity;BMP_temperature;BMP_pressure;BME280_temperature;BME280_humidity;BME280_pressure;Samples;Min_cycle;Max_cycle;Signal;HPM_P1;HPM_P2
2022/10/01 00:00:59;;;;;;;;;;;;;;;;;;5135579;27;1466;-43
2022/10/01 00:03:27;;;;;;;;;;;;;;;;;;5135093;27;1825;-44
2022/10/01 00:06:01;;;;;;;;;;;;;;;;;;5135521;27;1804;-45
2022/10/01 00:08:29;;;;;;;;;;;;;;;;;;5134377;27;1971;-44
2022/10/01 00:11:00;;;;;;;;;;;;;;;;;;5135465;27;1689;-46
2022/10/01 00:13:29;;;;;;;;;;;;;;;;;;5135270;27;1688;-45
2022/10/01 00:15:57;;;;;;;;;;;;;;;;;;5134008;27;1803;-46
2022/10/01 00:18:25;;;;;;;;;;;;;;;;;;5135125;27;2183;-46
2022/10/01 00:20:52;;;;;;;;;;;;;;;;;;5135264;27;1927;-45
2022/10/01 00:23:19;;;;;;;;;;;;;;;;;;5135193;27;1766;-44
2022/10/01 00:25:48;;;;;;;;;;;;;;;;;;5134908;27;2328;-45
2022/10/01 00:28:15;;;;;;;;;;;;;;;;;;5134058;27;2145;-42
2022/10/01 00:30:46;;;;;;;;;;;;;;;;;;5129607;27;1994;-43
2022/10/01 00:33:13;;;;;;;;;;;;;;;;;;5114267;28;1988;-45
2022/10/01 00:35:40;;;;;;;;;;;;;;;;;;5114408;28;2139;-43
2022/10/01 00:38:08;;;;;;;;;;;;;;;;;;5114421;28;1543;-46
2022/10/01 00:40:35;;;;;;;;;;;;;;;;;;5114074;28;1437;-42
2022/10/01 00:43:18;;;;;;;;;;;;;;;;;;5113932;28;1626;-45
2022/10/01 00:45:45;;;;;;;;;;;;;;;;;;5113974;28;1948;-46
2022/10/01 00:48:12;;;;;;;;;;;;;;;;;;5114213;28;1925;-45
2022/10/01 00:50:39;;;;;;;;;;;;;;;;;;5114352;27;1489;-42
2022/10/01 00:53:10;;;;;;;;;;;;;;;;;;5114763;27;1944;-45
2022/10/01 00:55:43;;;;;;;;;;;;;;;;;;5134449;27;1665;-43
2022/10/01 00:58:11;;;;;;;;;;;;;;;;;;5134567;27;1940;-42
2022/10/01 01:00:40;;;;;;;;;;;;;;;;;;5134619;27;1925;-45
2022/10/01 01:03:08;;;;;;;;;;;;;;;;;;5134265;27;1779;-44
2022/10/01 01:05:35;;;;;;;;;;;;;;;;;;5134333;27;2008;-44
2022/10/01 01:08:03;;;;;;;;;;;;;;;;;;5134334;27;1997;-43
2022/10/01 01:10:41;;;;;;;;;;;;;;;;;;5133117;27;2090;-44
2022/10/01 01:13:12;;;;;;;;;;;;;;;;;;5134218;27;1992;-44
2022/10/01 01:15:42;;;;;;;;;;;;;;;;;;5134134;27;1742;-42
2022/10/01 01:18:16;;;;;;;;;;;;;;;;;;5134103;27;1866;-45
2022/10/01 01:20:48;;;;;;;;;;;;;;;;;;5134076;27;1510;-43
2022/10/01 01:23:16;;;;;;;;;;;;;;;;;;5134182;27;1795;-41
2022/10/01 01:25:48;;;;;;;;;;;;;;;;;;5134258;27;1923;-44
2022/10/01 01:28:18;;;;;;;;;;;;;;;;;;5134013;27;1963;-44
2022/10/01 01:30:48;;;;;;;;;;;;;;;;;;5128248;27;1669;-46
2022/10/01 01:33:16;;;;;;;;;;;;;;;;;;5112905;28;2068;-42
2022/10/01 01:35:48;;;;;;;;;;;;;;;;;;5113370;27;1887;-44
2022/10/01 01:38:19;;;;;;;;;;;;;;;;;;5113182;28;2037;-42
2022/10/01 01:40:50;;;;;;;;;;;;;;;;;;5113371;28;1952;-43
2022/10/01 01:43:21;;;;;;;;;;;;;;;;;;5113203;28;2136;-44
2022/10/01 01:45:50;;;;;;;;;;;;;;;;;;5112471;28;1585;-45
2022/10/01 01:48:17;;;;;;;;;;;;;;;;;;5113004;28;2067;-42
2022/10/01 01:50:56;;;;;;;;;;;;;;;;;;5112944;28;1725;-43
2022/10/01 01:53:24;;;;;;;;;;;;;;;;;;5112907;28;2129;-45
2022/10/01 01:55:52;;;;;;;;;;;;;;;;;;5112651;28;2318;-43
2022/10/01 01:58:19;;;;;;;;;;;;;;;;;;5112983;28;1847;-45
2022/10/01 02:00:51;;;;;;;;;;;;;;;;;;5113091;28;1821;-44
2022/10/01 02:03:23;;;;;;;;;;;;;;;;;;5113061;28;1939;-43
2022/10/01 02:05:58;;;;;;;;;;;;;;;;;;5112801;28;2088;-44
2022/10/01 02:08:32;;;;;;;;;;;;;;;;;;5112400;28;1922;-44
2022/10/01 02:11:05;;;;;;;;;;;;;;;;;;5112924;28;2421;-44
2022/10/01 02:13:51;;;;;;;;;;;;;;;;;;5111369;28;1996;-43
2022/10/01 02:16:26;;;;;;;;;;;;;;;;;;5112832;28;2220;-45
2022/10/01 02:18:59;;;;;;;;;;;;;;;;;;5112649;28;1896;-41
2022/10/01 02:21:26;;;;;;;;;;;;;;;;;;5113069;28;1730;-47
2022/10/01 02:23:57;;;;;;;;;;;;;;;;;;5117060;28;1716;-46
2022/10/01 02:26:26;;;;;;;;;;;;;;;;;;5117526;27;1926;-45
2022/10/01 02:28:58;;;;;;;;;;;;;;;;;;5137434;27;2285;-43
2022/10/01 02:31:27;;;;;;;;;;;;;;;;;;5125584;27;2049;-45
2022/10/01 02:33:55;;;;;;;;;;;;;;;;;;5127381;27;1777;-44
2022/10/01 02:36:24;;;;;;;;;;;;;;;;;;5136874;27;1385;-45
2022/10/01 02:38:51;;;;;;;;;;;;;;;;;;5136974;27;1657;-42
2022/10/01 02:41:22;;;;;;;;;;;;;;;;;;5137167;27;2332;-45
2022/10/01 02:43:53;;;;;;;;;;;;;;;;;;5136955;27;2033;-44
2022/10/01 02:46:27;;;;;;;;;;;;;;;;;;5137249;27;1696;-44
2022/10/01 02:48:56;;;;;;;;;;;;;;;;;;5136883;27;1973;-45
2022/10/01 02:51:32;;;;;;;;;;;;;;;;;;5137143;27;2214;-44
2022/10/01 02:54:07;;;;;;;;;;;;;;;;;;5136409;27;1735;-43
2022/10/01 02:59:22;;;;;;;;;;;;;;;;;;5136506;27;1921;-42
2022/10/01 03:01:49;;;;;;;;;;;;;;;;;;5136599;27;1840;-46
2022/10/01 03:04:18;;;;;;;;;;;;;;;;;;5136737;27;1851;-44
2022/10/01 03:06:45;;;;;;;;;;;;;;;;;;5136388;27;2124;-45
2022/10/01 03:09:12;;;;;;;;;;;;;;;;;;5136485;27;1980;-45
2022/10/01 03:11:40;;;;;;;;;;;;;;;;;;5136466;27;1800;-45
2022/10/01 03:14:07;;;;;;;;;;;;;;;;;;5136561;27;1635;-43
2022/10/01 03:16:35;;;;;;;;;;;;;;;;;;5136457;27;1609;-43
2022/10/01 03:19:02;;;;;;;;;;;;;;;;;;5136401;27;1979;-45
2022/10/01 03:21:29;;;;;;;;;;;;;;;;;;5135933;27;2332;-45
2022/10/01 03:23:57;;;;;;;;;;;;;;;;;;5136210;27;2336;-43
2022/10/01 03:26:24;;;;;;;;;;;;;;;;;;5135392;27;2165;-43
2022/10/01 03:28:51;;;;;;;;;;;;;;;;;;5136439;27;1980;-44
2022/10/01 03:31:18;;;;;;;;;;;;;;;;;;5135946;27;2003;-46
2022/10/01 03:33:45;;;;;;;;;;;;;;;;;;5133704;27;1721;-45
2022/10/01 03:36:12;;;;;;;;;;;;;;;;;;5135755;27;1933;-45
2022/10/01 03:38:39;;;;;;;;;;;;;;;;;;5136213;27;1832;-43
2022/10/01 03:41:07;;;;;;;;;;;;;;;;;;5135792;27;2142;-45
2022/10/01 03:43:34;;;;;;;;;;;;;;;;;;5135257;27;1754;-44
2022/10/01 03:46:01;;;;;;;;;;;;;;;;;;5135903;27;1924;-45
2022/10/01 03:48:29;;;;;;;;;;;;;;;;;;5135795;27;1975;-46
2022/10/01 03:50:57;;;;;;;;;;;;;;;;;;5134557;27;1906;-45
2022/10/01 03:53:26;;;;;;;;;;;;;;;;;;5135823;27;1847;-42
2022/10/01 03:55:53;;;;;;;;;;;;;;;;;;5136036;27;2041;-44
2022/10/01 03:58:22;;;;;;;;;;;;;;;;;;5135760;27;1988;-44
2022/10/01 04:00:49;;;;;;;;;;;;;;;;;;5135519;27;2287;-45
2022/10/01 04:03:17;;;;;;;;;;;;;;;;;;5135422;27;1715;-46
2022/10/01 04:05:44;;;;;;;;;;;;;;;;;;5135440;27;1633;-46
2022/10/01 04:08:12;;;;;;;;;;;;;;;;;;5135408;27;2006;-44
2022/10/01 04:10:39;;;;;;;;;;;;;;;;;;5135425;27;1974;-44
2022/10/01 04:13:07;;;;;;;;;;;;;;;;;;5135340;27;1955;-43
2022/10/01 04:15:34;;;;;;;;;;;;;;;;;;5134671;27;1817;-46
2022/10/01 04:18:05;;;;;;;;;;;;;;;;;;5134962;27;2302;-45
2022/10/01 04:20:32;;;;;;;;;;;;;;;;;;5134979;27;2027;-44
2022/10/01 04:23:00;;;;;;;;;;;;;;;;;;5131169;27;2058;-43
2022/10/01 04:25:27;;;;;;;;;;;;;;;;;;5114591;28;2170;-43
2022/10/01 04:27:54;;;;;;;;;;;;;;;;;;5114505;28;2058;-42
2022/10/01 04:30:22;;;;;;;;;;;;;;;;;;5114246;28;1961;-44
2022/10/01 04:32:49;;;;;;;;;;;;;;;;;;5114611;28;2120;-48
2022/10/01 04:35:16;;;;;;;;;;;;;;;;;;5114518;28;1893;-45
2022/10/01 04:37:43;;;;;;;;;;;;;;;;;;5114384;28;1486;-42
2022/10/01 04:40:10;;;;;;;;;;;;;;;;;;5114235;28;1986;-47
2022/10/01 04:42:39;;;;;;;;;;;;;;;;;;5114353;28;1534;-42
2022/10/01 04:45:08;;;;;;;;;;;;;;;;;;5113880;28;1713;-43
2022/10/01 04:47:35;;;;;;;;;;;;;;;;;;5113066;28;1904;-45
2022/10/01 04:50:03;;;;;;;;;;;;;;;;;;5113485;28;1977;-40
2022/10/01 04:52:31;;;;;;;;;;;;;;;;;;5113856;28;1713;-42
2022/10/01 04:54:58;;;;;;;;;;;;;;;;;;5113920;28;1536;-42
2022/10/01 04:57:25;;;;;;;;;;;;;;;;;;5113771;27;1655;-42
2022/10/01 04:59:52;;;;;;;;;;;;;;;;;;5114300;28;1785;-42
2022/10/01 05:02:20;;;;;;;;;;;;;;;;;;5114282;28;1879;-41
2022/10/01 05:04:47;;;;;;;;;;;;;;;;;;5114035;28;1933;-42
2022/10/01 05:07:14;;;;;;;;;;;;;;;;;;5113538;28;1875;-43
2022/10/01 05:09:41;;;;;;;;;;;;;;;;;;5113646;28;1886;-44
2022/10/01 05:12:08;;;;;;;;;;;;;;;;;;5113679;28;1830;-43
2022/10/01 05:14:36;;;;;;;;;;;;;;;;;;5113610;28;1933;-42
2022/10/01 05:17:03;;;;;;;;;;;;;;;;;;5113600;28;1750;-41
2022/10/01 05:19:31;;;;;;;;;;;;;;;;;;5113519;28;1571;-45
2022/10/01 05:21:58;;;;;;;;;;;;;;;;;;5113434;28;1788;-42
2022/10/01 05:24:25;;;;;;;;;;;;;;;;;;5113451;28;2296;-42
2022/10/01 05:26:53;;;;;;;;;;;;;;;;;;5113395;28;1480;-41
2022/10/01 05:29:20;;;;;;;;;;;;;;;;;;5113392;28;1946;-43
2022/10/01 05:31:48;;;;;;;;;;;;;;;;;;5127274;27;1946;-46
2022/10/01 05:34:15;;;;;;;;;;;;;;;;;;5133694;27;1764;-42
2022/10/01 05:36:42;;;;;;;;;;;;;;;;;;5133685;27;1802;-42
2022/10/01 05:39:10;;;;;;;;;;;;;;;;;;5133899;27;1395;-40
2022/10/01 05:41:39;;;;;;;;;;;;;;;;;;5133364;27;1909;-40
2022/10/01 05:44:06;;;;;;;;;;;;;;;;;;5133770;27;2086;-42
2022/10/01 05:46:33;;;;;;;;;;;;;;;;;;5133743;27;2103;-42
2022/10/01 05:49:01;;;;;;;;;;;;;;;;;;5133779;27;1831;-44
2022/10/01 05:51:29;;;;;;;;;;;;;;;;;;5133286;27;2038;-42
2022/10/01 05:53:57;;;;;;;;;;;;;;;;;;5133637;27;2317;-43
2022/10/01 05:56:25;;;;;;;;;;;;;;;;;;5131972;27;1710;-42
2022/10/01 05:58:52;;;;;;;;;;;;;;;;;;5133380;27;1750;-43
2022/10/01 06:01:19;;;;;;;;;;;;;;;;;;5132630;27;1613;-44
2022/10/01 06:03:50;;;;;;;;;;;;;;;;;;5133204;27;1459;-43
2022/10/01 06:06:24;;;;;;;;;;;;;;;;;;5133372;28;1555;-45
2022/10/01 06:08:51;;;;;;;;;;;;;;;;;;5115531;28;1909;-42
2022/10/01 06:11:21;;;;;;;;;;;;;;;;;;5118604;28;2148;-43
2022/10/01 06:13:49;;;;;;;;;;;;;;;;;;5133406;27;1953;-41
2022/10/01 06:16:16;;;;;;;;;;;;;;;;;;5133136;27;1991;-42
2022/10/01 06:18:45;;;;;;;;;;;;;;;;;;5116015;27;1843;-42
2022/10/01 06:21:12;;;;;;;;;;;;;;;;;;5113327;28;1701;-41
2022/10/01 06:23:40;;;;;;;;;;;;;;;;;;5112571;28;1607;-43
2022/10/01 06:26:07;;;;;;;;;;;;;;;;;;5112886;28;1855;-43
2022/10/01 06:28:34;;;;;;;;;;;;;;;;;;5112654;28;1776;-42
2022/10/01 06:31:02;;;;;;;;;;;;;;;;;;5120435;28;1913;-42
2022/10/01 06:33:29;;;;;;;;;;;;;;;;;;5133097;27;1609;-43
2022/10/01 06:35:56;;;;;;;;;;;;;;;;;;5133129;27;1604;-42
2022/10/01 06:38:24;;;;;;;;;;;;;;;;;;5132170;28;2158;-42
2022/10/01 06:40:55;;;;;;;;;;;;;;;;;;5132813;27;1909;-44
2022/10/01 06:43:22;;;;;;;;;;;;;;;;;;5133252;27;1939;-43
2022/10/01 06:45:50;;;;;;;;;;;;;;;;;;5132752;28;2000;-42
2022/10/01 06:48:18;;;;;;;;;;;;;;;;;;5132839;28;2006;-42
2022/10/01 06:50:46;;;;;;;;;;;;;;;;;;5133147;28;1914;-43
2022/10/01 06:53:14;;;;;;;;;;;;;;;;;;5133143;28;1881;-42
2022/10/01 06:55:42;;;;;;;;;;;;;;;;;;5132945;27;1883;-45
2022/10/01 06:58:12;;;;;;;;;;;;;;;;;;5131714;28;2306;-42
2022/10/01 07:00:39;;;;;;;;;;;;;;;;;;5131602;28;2107;-42
2022/10/01 07:03:09;;;;;;;;;;;;;;;;;;5133198;27;1667;-43
2022/10/01 07:05:37;;;;;;;;;;;;;;;;;;5132086;27;2173;-43
2022/10/01 07:08:05;;;;;;;;;;;;;;;;;;5134301;27;1931;-42
2022/10/01 07:10:33;;;;;;;;;;;;;;;;;;5136252;27;2036;-41
2022/10/01 07:13:07;;;;;;;;;;;;;;;;;;5136553;27;1907;-41
2022/10/01 07:15:35;;;;;;;;;;;;;;;;;;5136542;27;2032;-43
2022/10/01 07:18:02;;;;;;;;;;;;;;;;;;5136428;27;1966;-42
2022/10/01 07:20:33;;;;;;;;;;;;;;;;;;5136646;27;1813;-43
2022/10/01 07:23:00;;;;;;;;;;;;;;;;;;5136376;27;2110;-42
2022/10/01 07:25:28;;;;;;;;;;;;;;;;;;5136457;27;1805;-42
2022/10/01 07:27:56;;;;;;;;;;;;;;;;;;5136026;27;1641;-42
2022/10/01 07:30:24;;;;;;;;;;;;;;;;;;5133730;27;1973;-41
2022/10/01 07:32:51;;;;;;;;;;;;;;;;;;5115759;28;1983;-46
2022/10/01 07:35:19;;;;;;;;;;;;;;;;;;5115512;28;1805;-42
2022/10/01 07:37:47;;;;;;;;;;;;;;;;;;5115329;28;1885;-43
2022/10/01 07:40:16;;;;;;;;;;;;;;;;;;5115290;28;1806;-43
2022/10/01 07:42:53;;;;;;;;;;;;;;;;;;5115586;28;1920;-42
2022/10/01 07:45:24;;;;;;;;;;;;;;;;;;5115347;28;1208;-42
2022/10/01 07:47:55;;;;;;;;;;;;;;;;;;5115216;28;1816;-42
2022/10/01 07:50:24;;;;;;;;;;;;;;;;;;5115258;28;2028;-44
2022/10/01 07:52:55;;;;;;;;;;;;;;;;;;5114013;28;1569;-42
2022/10/01 07:55:23;;;;;;;;;;;;;;;;;;5114909;28;1633;-43
2022/10/01 07:57:54;;;;;;;;;;;;;;;;;;5116758;27;1938;-42
2022/10/01 08:00:25;;;;;;;;;;;;;;;;;;5133772;27;1885;-44
2022/10/01 08:02:54;;;;;;;;;;;;;;;;;;5134112;27;1818;-43
2022/10/01 08:05:29;;;;;;;;;;;;;;;;;;5133895;27;1635;-44
2022/10/01 08:07:57;;;;;;;;;;;;;;;;;;5133761;27;1783;-41
2022/10/01 08:10:25;;;;;;;;;;;;;;;;;;5133851;27;1940;-43
2022/10/01 08:12:58;;;;;;;;;;;;;;;;;;5133323;27;1922;-42
2022/10/01 08:15:25;;;;;;;;;;;;;;;;;;5133505;27;1749;-44
2022/10/01 08:17:53;;;;;;;;;;;;;;;;;;5133931;27;2076;-42
2022/10/01 08:20:20;;;;;;;;;;;;;;;;;;5133187;27;1956;-42
2022/10/01 08:22:47;;;;;;;;;;;;;;;;;;5133411;27;1833;-49
2022/10/01 08:25:15;;;;;;;;;;;;;;;;;;5133722;27;1733;-42
2022/10/01 08:27:42;;;;;;;;;;;;;;;;;;5133633;27;1961;-46
2022/10/01 08:30:09;;;;;;;;;;;;;;;;;;5133166;27;1994;-42
2022/10/01 08:32:37;;;;;;;;;;;;;;;;;;5133504;27;1775;-42
2022/10/01 08:35:04;;;;;;;;;;;;;;;;;;5133456;27;1693;-42
2022/10/01 08:37:31;;;;;;;;;;;;;;;;;;5133495;27;1215;-41
2022/10/01 08:39:58;;;;;;;;;;;;;;;;;;5133187;27;1807;-42
2022/10/01 08:42:28;;;;;;;;;;;;;;;;;;5133508;27;1856;-42
2022/10/01 08:44:56;;;;;;;;;;;;;;;;;;5133428;27;1887;-41
2022/10/01 08:47:41;;;;;;;;;;;;;;;;;;5133060;27;1894;-42
2022/10/01 08:50:15;;;;;;;;;;;;;;;;;;5133092;27;1902;-43
2022/10/01 08:52:50;;;;;;;;;;;;;;;;;;5132984;27;1877;-42
2022/10/01 08:55:23;;;;;;;;;;;;;;;;;;5133167;27;2496;-41
2022/10/01 08:57:52;;;;;;;;;;;;;;;;;;5133322;27;1957;-43
2022/10/01 09:00:20;;;;;;;;;;;;;;;;;;5133247;27;1758;-42
2022/10/01 09:02:48;;;;;;;;;;;;;;;;;;5133477;27;1767;-43
2022/10/01 09:05:27;;;;;;;;;;;;;;;;;;5133343;27;1469;-42
2022/10/01 09:08:04;;;;;;;;;;;;;;;;;;5133208;27;1968;-41
2022/10/01 09:10:43;;;;;;;;;;;;;;;;;;5133248;27;2019;-41
2022/10/01 09:13:29;;;;;;;;;;;;;;;;;;5133283;27;1928;-42
2022/10/01 09:16:05;;;;;;;;;;;;;;;;;;5133175;27;1798;-42
2022/10/01 09:18:38;;;;;;;;;;;;;;;;;;5133010;27;2210;-43
2022/10/01 09:21:11;;;;;;;;;;;;;;;;;;5133040;27;1832;-43
2022/10/01 09:23:45;;;;;;;;;;;;;;;;;;5132866;27;1405;-41
2022/10/01 09:26:13;;;;;;;;;;;;;;;;;;5132829;27;1879;-41
2022/10/01 09:28:40;;;;;;;;;;;;;;;;;;5133194;27;1704;-41
2022/10/01 09:31:07;;;;;;;;;;;;;;;;;;5132412;27;1902;-42
2022/10/01 09:33:40;;;;;;;;;;;;;;;;;;5132755;27;2110;-43
2022/10/01 09:36:17;;;;;;;;;;;;;;;;;;5132963;27;2052;-42
2022/10/01 09:39:03;;;;;;;;;;;;;;;;;;5111823;27;2060;-41
2022/10/01 09:41:33;;;;;;;;;;;;;;;;;;5119994;27;1844;-42
2022/10/01 09:44:00;;;;;;;;;;;;;;;;;;5130154;27;2000;-42
2022/10/01 09:46:27;;;;;;;;;;;;;;;;;;5113174;28;1414;-44
2022/10/01 09:48:57;;;;;;;;;;;;;;;;;;5113071;28;1829;-42
2022/10/01 09:51:24;;;;;;;;;;;;;;;;;;5113146;28;2044;-41
2022/10/01 09:54:11;;;;;;;;;;;;;;;;;;5122100;27;1709;-40
2022/10/01 09:56:41;;;;;;;;;;;;;;;;;;5125727;27;1770;-42
2022/10/01 09:59:14;;;;;;;;;;;;;;;;;;5113107;28;1849;-43
2022/10/01 10:01:44;;;;;;;;;;;;;;;;;;5112820;28;1796;-41
2022/10/01 10:04:17;;;;;;;;;;;;;;;;;;5112795;28;1864;-42
2022/10/01 10:06:46;;;;;;;;;;;;;;;;;;5112903;28;2178;-40
2022/10/01 10:09:14;;;;;;;;;;;;;;;;;;5111434;28;2085;-42
2022/10/01 10:11:43;;;;;;;;;;;;;;;;;;5126889;28;2163;-41
2022/10/01 10:14:14;;;;;;;;;;;;;;;;;;5115816;27;1911;-38
2022/10/01 10:16:46;;;;;;;;;;;;;;;;;;5112283;28;2223;-42
2022/10/01 10:19:21;;;;;;;;;;;;;;;;;;5112853;28;1721;-46
2022/10/01 10:21:50;;;;;;;;;;;;;;;;;;5112592;28;1780;-42
2022/10/01 10:24:23;;;;;;;;;;;;;;;;;;5112426;28;1922;-42
2022/10/01 10:26:55;;;;;;;;;;;;;;;;;;5112535;28;2083;-42
2022/10/01 10:29:27;;;;;;;;;;;;;;;;;;5112368;28;1732;-41
2022/10/01 10:31:54;;;;;;;;;;;;;;;;;;5112492;28;1910;-42
2022/10/01 10:34:42;;;;;;;;;;;;;;;;;;5112820;28;1896;-43
2022/10/01 10:37:13;;;;;;;;;;;;;;;;;;5112485;28;1662;-42
2022/10/01 10:39:41;;;;;;;;;;;;;;;;;;5112365;28;1755;-42
2022/10/01 10:42:13;;;;;;;;;;;;;;;;;;5112487;28;1748;-43
2022/10/01 10:44:42;;;;;;;;;;;;;;;;;;5116671;28;2063;-45
2022/10/01 10:47:12;;;;;;;;;;;;;;;;;;5116645;28;2165;-41
2022/10/01 10:49:43;;;;;;;;;;;;;;;;;;5116409;28;1271;-42
2022/10/01 10:52:18;;;;;;;;;;;;;;;;;;5116401;28;1969;-43
2022/10/01 10:54:47;;;;;;;;;;;;;;;;;;5116224;28;1777;-41
2022/10/01 10:57:33;;;;;;;;;;;;;;;;;;5116313;28;1596;-41
2022/10/01 11:00:04;;;;;;;;;;;;;;;;;;5116047;28;1332;-42
2022/10/01 11:02:32;;;;;;;;;;;;;;;;;;5116145;28;1828;-42
2022/10/01 11:05:04;;;;;;;;;;;;;;;;;;5116261;28;2047;-43
2022/10/01 11:07:32;;;;;;;;;;;;;;;;;;5116132;28;1496;-43
2022/10/01 11:10:17;;;;;;;;;;;;;;;;;;5116216;28;2042;-41
2022/10/01 11:13:01;;;;;;;;;;;;;;;;;;5116139;28;1906;-42
2022/10/01 11:15:28;;;;;;;;;;;;;;;;;;5115729;28;2009;-42
2022/10/01 11:18:14;;;;;;;;;;;;;;;;;;5114620;28;1837;-41
2022/10/01 11:20:49;;;;;;;;;;;;;;;;;;5115566;28;1856;-42
2022/10/01 11:23:26;;;;;;;;;;;;;;;;;;5115837;28;1876;-42
2022/10/01 11:26:04;;;;;;;;;;;;;;;;;;5115446;28;1630;-41
2022/10/01 11:28:40;;;;;;;;;;;;;;;;;;5126113;27;2255;-42
2022/10/01 11:31:26;;;;;;;;;;;;;;;;;;5135792;27;1898;-41
2022/10/01 11:34:12;;;;;;;;;;;;;;;;;;5120950;27;1765;-45
2022/10/01 11:36:44;;;;;;;;;;;;;;;;;;5115725;28;2074;-41
2022/10/01 11:39:17;;;;;;;;;;;;;;;;;;5115351;28;1958;-44
2022/10/01 11:41:47;;;;;;;;;;;;;;;;;;5115276;28;1597;-42
2022/10/01 11:44:25;;;;;;;;;;;;;;;;;;5115570;28;1870;-41
2022/10/01 11:47:00;;;;;;;;;;;;;;;;;;5115375;28;1900;-41
2022/10/01 11:49:36;;;;;;;;;;;;;;;;;;5115440;28;1846;-41
2022/10/01 11:52:15;;;;;;;;;;;;;;;;;;5115174;28;1910;-41
2022/10/01 12:01:08;;;;;;;;;;;;;;;;;;5115052;28;1914;-41
2022/10/01 12:03:41;;;;;;;;;;;;;;;;;;5114760;28;1777;-42
2022/10/01 12:06:13;;;;;;;;;;;;;;;;;;5115061;28;1695;-42
2022/10/01 12:08:44;;;;;;;;;;;;;;;;;;5114166;28;1460;-42
2022/10/01 12:11:34;;;;;;;;;;;;;;;;;;5115064;28;1971;-41
2022/10/01 12:14:22;;;;;;;;;;;;;;;;;;5107121;28;1840;-40
2022/10/01 12:16:58;;;;;;;;;;;;;;;;;;5113767;28;1968;-42
2022/10/01 12:19:28;;;;;;;;;;;;;;;;;;5114712;28;1678;-41
2022/10/01 12:22:02;;;;;;;;;;;;;;;;;;5114770;28;1622;-42
2022/10/01 12:24:32;;;;;;;;;;;;;;;;;;5114328;28;1795;-42
2022/10/01 12:27:06;;;;;;;;;;;;;;;;;;5114040;28;1997;-45
2022/10/01 12:29:43;;;;;;;;;;;;;;;;;;5114115;28;2099;-42
2022/10/01 12:32:23;;;;;;;;;;;;;;;;;;5114924;27;1910;-42
2022/10/01 12:35:11;;;;;;;;;;;;;;;;;;5133249;27;2134;-42
2022/10/01 12:37:48;;;;;;;;;;;;;;;;;;5133836;27;1911;-42
2022/10/01 12:40:21;;;;;;;;;;;;;;;;;;5134391;27;1412;-42
2022/10/01 12:42:50;;;;;;;;;;;;;;;;;;5134854;27;2121;-41
2022/10/01 12:45:21;;;;;;;;;;;;;;;;;;5121613;27;2206;-42
2022/10/01 12:48:00;;;;;;;;;;;;;;;;;;5134700;27;1392;-42
2022/10/01 12:50:45;;;;;;;;;;;;;;;;;;5135202;27;1581;-42
2022/10/01 12:53:29;;;;;;;;;;;;;;;;;;5134519;27;1921;-42
2022/10/01 12:56:02;;;;;;;;;;;;;;;;;;5134442;27;1676;-41
2022/10/01 12:58:50;;;;;;;;;;;;;;;;;;5134624;27;1999;-42
2022/10/01 13:01:20;;;;;;;;;;;;;;;;;;5133588;27;2030;-42
2022/10/01 13:03:53;;;;;;;;;;;;;;;;;;5127587;27;2110;-47
2022/10/01 13:06:24;;;;;;;;;;;;;;;;;;5112453;28;1692;-42
2022/10/01 13:08:58;;;;;;;;;;;;;;;;;;5113502;28;1916;-43
2022/10/01 13:11:37;;;;;;;;;;;;;;;;;;5113645;28;1960;-42
2022/10/01 13:14:06;;;;;;;;;;;;;;;;;;5113621;28;1999;-42
2022/10/01 13:16:41;;;;;;;;;;;;;;;;;;5112287;28;1536;-42
2022/10/01 13:19:38;;;;;;;;;;;;;;;;;;5113625;28;1893;-42
2022/10/01 13:22:25;;;;;;;;;;;;;;;;;;5105369;28;1794;-42
2022/10/01 13:24:59;;;;;;;;;;;;;;;;;;5113706;28;1895;-41
2022/10/01 13:27:34;;;;;;;;;;;;;;;;;;5113483;28;1603;-42
2022/10/01 13:30:13;;;;;;;;;;;;;;;;;;5113508;28;1981;-42
2022/10/01 13:32:51;;;;;;;;;;;;;;;;;;5113365;28;2246;-42
2022/10/01 13:35:42;;;;;;;;;;;;;;;;;;5113526;28;2108;-43
2022/10/01 13:38:13;;;;;;;;;;;;;;;;;;5103313;28;1964;-41
2022/10/01 13:40:40;;;;;;;;;;;;;;;;;;5112988;28;1879;-42
2022/10/01 13:43:14;;;;;;;;;;;;;;;;;;5113288;28;1754;-41
2022/10/01 13:45:46;;;;;;;;;;;;;;;;;;5113103;28;2057;-47
2022/10/01 13:48:23;;;;;;;;;;;;;;;;;;5113416;28;2287;-42
2022/10/01 13:51:07;;;;;;;;;;;;;;;;;;5112969;28;2055;-42
2022/10/01 13:53:50;;;;;;;;;;;;;;;;;;5112845;28;2068;-41
2022/10/01 13:56:33;;;;;;;;;;;;;;;;;;5112435;28;1942;-42
2022/10/01 13:59:01;;;;;;;;;;;;;;;;;;5112904;28;1878;-45
2022/10/01 14:01:39;;;;;;;;;;;;;;;;;;5113300;28;2216;-42
2022/10/01 14:04:14;;;;;;;;;;;;;;;;;;5112999;28;1792;-41
2022/10/01 14:06:56;;;;;;;;;;;;;;;;;;5113115;28;1723;-42
2022/10/01 14:09:26;;;;;;;;;;;;;;;;;;5112793;28;1865;-42
2022/10/01 14:18:00;;;;;;;;;;;;;;;;;;5114058;28;1763;-45
2022/10/01 14:20:30;;;;;;;;;;;;;;;;;;5117301;28;2169;-44
2022/10/01 14:23:14;;;;;;;;;;;;;;;;;;5116834;28;1671;-42
2022/10/01 14:25:44;;;;;;;;;;;;;;;;;;5117310;28;1818;-44
2022/10/01 14:28:23;;;;;;;;;;;;;;;;;;5116235;28;2287;-41
2022/10/01 14:30:59;;;;;;;;;;;;;;;;;;5116859;28;1737;-41
2022/10/01 14:33:29;;;;;;;;;;;;;;;;;;5116725;28;2067;-41
2022/10/01 14:36:02;;;;;;;;;;;;;;;;;;5116724;28;1931;-41
2022/10/01 14:38:29;;;;;;;;;;;;;;;;;;5116899;28;2132;-41
2022/10/01 14:40:56;;;;;;;;;;;;;;;;;;5116152;28;1573;-42
2022/10/01 14:43:28;;;;;;;;;;;;;;;;;;5116633;28;1778;-41
2022/10/01 14:46:00;;;;;;;;;;;;;;;;;;5116717;28;1627;-41
2022/10/01 14:48:29;;;;;;;;;;;;;;;;;;5116708;28;1747;-42
2022/10/01 14:50:58;;;;;;;;;;;;;;;;;;5116375;28;1843;-43
2022/10/01 14:53:27;;;;;;;;;;;;;;;;;;5116370;28;1906;-41
2022/10/01 14:55:55;;;;;;;;;;;;;;;;;;5116445;28;1937;-41
2022/10/01 14:58:26;;;;;;;;;;;;;;;;;;5116493;28;1792;-42
2022/10/01 15:00:54;;;;;;;;;;;;;;;;;;5116490;28;2095;-41
2022/10/01 15:03:21;;;;;;;;;;;;;;;;;;5116089;28;2098;-44
2022/10/01 15:05:49;;;;;;;;;;;;;;;;;;5116107;28;1617;-42
2022/10/01 15:08:51;;;;;;;;;;;;;;;;;;5116321;28;1982;-41
2022/10/01 15:11:23;;;;;;;;;;;;;;;;;;5073228;28;1881;-42
2022/10/01 15:13:51;;;;;;;;;;;;;;;;;;5109073;28;2098;-41
2022/10/01 15:16:21;;;;;;;;;;;;;;;;;;5115979;28;1938;-42
2022/10/01 15:18:54;;;;;;;;;;;;;;;;;;5115497;28;2453;-45
2022/10/01 15:21:25;;;;;;;;;;;;;;;;;;5115943;28;1676;-43
2022/10/01 15:23:53;;;;;;;;;;;;;;;;;;5114764;28;1735;-43
2022/10/01 15:26:22;;;;;;;;;;;;;;;;;;5114449;28;2164;-42
2022/10/01 15:29:00;;;;;;;;;;;;;;;;;;5113651;28;2221;-45
2022/10/01 15:31:27;;;;;;;;;;;;;;;;;;5115559;28;1942;-45
2022/10/01 15:33:54;;;;;;;;;;;;;;;;;;5115774;28;1905;-43
2022/10/01 15:36:24;;;;;;;;;;;;;;;;;;5115447;28;1630;-41
2022/10/01 15:38:52;;;;;;;;;;;;;;;;;;5116169;28;1834;-44
2022/10/01 15:41:24;;;;;;;;;;;;;;;;;;5115278;28;1359;-42
2022/10/01 15:44:03;;;;;;;;;;;;;;;;;;5115596;28;1812;-42
2022/10/01 15:46:33;;;;;;;;;;;;;;;;;;5115340;28;2318;-41
2022/10/01 15:49:10;;;;;;;;;;;;;;;;;;5115317;28;1858;-42
2022/10/01 15:51:43;;;;;;;;;;;;;;;;;;5114023;28;2091;-42
2022/10/01 15:54:14;;;;;;;;;;;;;;;;;;5115351;28;2320;-43
2022/10/01 15:56:46;;;;;;;;;;;;;;;;;;5115571;28;1778;-43
2022/10/01 15:59:18;;;;;;;;;;;;;;;;;;5115373;28;1603;-43
2022/10/01 16:01:47;;;;;;;;;;;;;;;;;;5115132;28;1594;-42
2022/10/01 16:04:28;;;;;;;;;;;;;;;;;;5115257;27;1848;-44
2022/10/01 16:06:56;;;;;;;;;;;;;;;;;;5114438;28;1611;-42
2022/10/01 16:09:24;;;;;;;;;;;;;;;;;;5115114;28;1731;-43
2022/10/01 16:12:08;;;;;;;;;;;;;;;;;;5114371;28;2253;-42
2022/10/01 16:14:42;;;;;;;;;;;;;;;;;;5124680;27;1655;-42
2022/10/01 16:17:16;;;;;;;;;;;;;;;;;;5135585;27;1987;-46
2022/10/01 16:19:44;;;;;;;;;;;;;;;;;;5135325;27;1750;-43
2022/10/01 16:22:21;;;;;;;;;;;;;;;;;;5135769;27;1773;-41
2022/10/01 16:24:51;;;;;;;;;;;;;;;;;;5135038;27;2003;-42
2022/10/01 16:27:24;;;;;;;;;;;;;;;;;;5135306;27;1830;-42
2022/10/01 16:29:53;;;;;;;;;;;;;;;;;;5135234;27;2213;-42
2022/10/01 16:32:20;;;;;;;;;;;;;;;;;;5133180;27;1973;-44
2022/10/01 16:34:48;;;;;;;;;;;;;;;;;;5114399;28;2081;-43
2022/10/01 16:37:15;;;;;;;;;;;;;;;;;;5114612;28;1738;-42
2022/10/01 16:39:43;;;;;;;;;;;;;;;;;;5114440;28;2133;-43
2022/10/01 16:42:16;;;;;;;;;;;;;;;;;;5114002;28;1953;-44
2022/10/01 16:44:50;;;;;;;;;;;;;;;;;;5114238;28;1660;-43
2022/10/01 16:47:18;;;;;;;;;;;;;;;;;;5114218;28;1791;-43
2022/10/01 16:49:47;;;;;;;;;;;;;;;;;;5114334;28;1818;-42
2022/10/01 16:52:15;;;;;;;;;;;;;;;;;;5114192;28;2044;-44
2022/10/01 16:54:43;;;;;;;;;;;;;;;;;;5114392;28;1948;-43
2022/10/01 16:57:10;;;;;;;;;;;;;;;;;;5112959;28;2018;-43
2022/10/01 16:59:38;;;;;;;;;;;;;;;;;;5112571;28;2055;-42
2022/10/01 17:02:08;;;;;;;;;;;;;;;;;;5114075;28;2088;-45
2022/10/01 17:04:35;;;;;;;;;;;;;;;;;;5113982;28;1618;-41
2022/10/01 17:07:03;;;;;;;;;;;;;;;;;;5113641;28;1871;-43
2022/10/01 17:09:30;;;;;;;;;;;;;;;;;;5114044;28;1751;-41
2022/10/01 17:11:57;;;;;;;;;;;;;;;;;;5113955;28;2070;-42
2022/10/01 17:14:25;;;;;;;;;;;;;;;;;;5113747;28;1968;-44
2022/10/01 17:16:52;;;;;;;;;;;;;;;;;;5113557;28;1237;-42
2022/10/01 17:19:20;;;;;;;;;;;;;;;;;;5113406;28;1922;-42
2022/10/01 17:21:47;;;;;;;;;;;;;;;;;;5113544;28;1878;-43
2022/10/01 17:24:15;;;;;;;;;;;;;;;;;;5113803;28;2158;-43
2022/10/01 17:26:44;;;;;;;;;;;;;;;;;;5113692;28;1643;-42
2022/10/01 17:29:11;;;;;;;;;;;;;;;;;;5113708;28;1519;-44
2022/10/01 17:31:39;;;;;;;;;;;;;;;;;;5113281;28;1624;-42
2022/10/01 17:34:07;;;;;;;;;;;;;;;;;;5130087;27;1987;-41
2022/10/01 17:36:34;;;;;;;;;;;;;;;;;;5133751;27;2172;-43
2022/10/01 17:39:02;;;;;;;;;;;;;;;;;;5133628;27;1963;-43
2022/10/01 17:41:29;;;;;;;;;;;;;;;;;;5133838;27;1438;-43
2022/10/01 17:43:57;;;;;;;;;;;;;;;;;;5133898;27;1713;-42